Terminal Aerodrome Forecast
Issued by NWS

Home | Current Version | Previous Version | Text Only | Print | Product List | Glossary On
Versions: 1 2 3 4 5 6 7 8 9 10 11 12 13 14 15 16 17 18 19 20
815
FTUS43 KILX 051525 AAA
TAFCMI
TAF AMD
KCMI 051525Z 0515/0612 35012G19KT P6SM SCT015 BKN035
     FM051600 35012G19KT P6SM SCT025
     FM060000 VRB03KT P6SM SKC=

USA.gov is the U.S. government's official web portal to all federal, state and local government web resources and services.